createdAt,value
2018-02-12T00:00:05.878Z,31.27
2018-02-12T00:02:34.175Z,36.08
2018-02-12T00:05:02.357Z,38.97
2018-02-12T00:07:30.718Z,46.90
2018-02-12T00:09:58.995Z,35.95
2018-02-12T00:12:27.556Z,39.63
2018-02-12T00:14:56.299Z,45.80
2018-02-12T00:17:24.554Z,39.13
2018-02-12T00:19:52.815Z,42.30
2018-02-12T00:22:21.398Z,40.25
2018-02-12T00:24:49.795Z,42.38
2018-02-12T00:27:18.267Z,40.47
2018-02-12T00:29:46.588Z,42.88
2018-02-12T00:32:14.769Z,37.88
2018-02-12T00:34:42.958Z,40.95
2018-02-12T00:37:11.477Z,37.47
2018-02-12T00:39:39.753Z,39.08
2018-02-12T00:42:08.024Z,39.55
2018-02-12T00:44:36.139Z,32.70
2018-02-12T00:47:04.443Z,35.75
2018-02-12T00:49:32.697Z,32.47
2018-02-12T00:52:01.002Z,37.60
2018-02-12T00:54:29.442Z,31.77
2018-02-12T00:56:57.778Z,31.37
2018-02-12T00:59:25.934Z,32.25
2018-02-12T01:01:54.334Z,29.17
2018-02-12T01:04:22.620Z,31.87
2018-02-12T01:06:50.806Z,35.60
2018-02-12T01:09:19.017Z,35.80
2018-02-12T01:11:47.414Z,35.92
2018-02-12T01:14:15.641Z,33.13
2018-02-12T01:16:43.957Z,31.00
2018-02-12T01:19:12.203Z,40.10
2018-02-12T01:21:40.498Z,32.63
2018-02-12T01:24:08.662Z,34.10
2018-02-12T01:26:37.079Z,32.15
2018-02-12T01:29:05.107Z,36.80
2018-02-12T01:31:33.475Z,38.20
2018-02-12T01:34:01.719Z,34.33
2018-02-12T01:36:29.994Z,35.03
2018-02-12T01:38:58.359Z,34.05
2018-02-12T01:41:26.656Z,39.05
2018-02-12T01:43:55.461Z,36.85
2018-02-12T01:46:23.855Z,30.40
2018-02-12T01:48:52.254Z,33.17
2018-02-12T01:51:20.603Z,33.33
2018-02-12T01:53:48.979Z,36.25
2018-02-12T01:56:17.259Z,28.90
2018-02-12T01:58:45.556Z,39.42
2018-02-12T02:01:13.918Z,34.97
2018-02-12T02:03:42.259Z,35.35
2018-02-12T02:06:12.195Z,31.80
2018-02-12T02:08:40.277Z,40.67
2018-02-12T02:11:08.397Z,34.03
2018-02-12T02:13:36.615Z,38.15
2018-02-12T02:16:04.959Z,33.00
2018-02-12T02:18:33.465Z,35.13
2018-02-12T02:21:01.647Z,34.67
2018-02-12T02:23:31.080Z,34.70
2018-02-12T02:25:59.474Z,29.02
2018-02-12T02:28:27.938Z,29.60
2018-02-12T02:30:56.138Z,44.20
2018-02-12T02:33:24.458Z,39.30
2018-02-12T02:35:52.858Z,35.92
2018-02-12T02:38:21.138Z,40.85
2018-02-12T02:40:49.455Z,33.20
2018-02-12T02:43:17.863Z,36.55
2018-02-12T02:45:46.476Z,35.20
2018-02-12T02:48:14.859Z,39.60
2018-02-12T02:50:43.096Z,39.53
2018-02-12T02:53:11.424Z,30.90
2018-02-12T02:55:39.700Z,36.58
2018-02-12T02:58:07.920Z,36.05
2018-02-12T03:00:36.355Z,40.03
2018-02-12T03:03:04.754Z,33.85
2018-02-12T03:05:32.836Z,39.17
2018-02-12T03:08:01.136Z,39.13
2018-02-12T03:10:29.280Z,31.52
2018-02-12T03:12:57.715Z,35.70
2018-02-12T03:15:25.938Z,37.05
2018-02-12T03:17:54.297Z,36.70
2018-02-12T03:20:22.518Z,34.97
2018-02-12T03:22:50.815Z,35.72
2018-02-12T03:25:18.937Z,37.08
2018-02-12T03:27:47.498Z,40.63
2018-02-12T03:30:15.700Z,32.92
2018-02-12T03:32:43.819Z,39.33
2018-02-12T03:35:11.999Z,34.00
2018-02-12T03:37:41.197Z,31.02
2018-02-12T03:40:09.300Z,33.78
2018-02-12T03:42:37.483Z,38.08
2018-02-12T03:45:06.619Z,35.55
2018-02-12T03:47:35.116Z,30.65
2018-02-12T03:50:03.475Z,36.40
2018-02-12T03:52:31.818Z,44.15
2018-02-12T03:55:00.275Z,28.33
2018-02-12T03:57:28.594Z,29.30
2018-02-12T03:59:56.809Z,31.98
2018-02-12T04:02:25.096Z,33.10
2018-02-12T04:04:53.397Z,36.80
2018-02-12T04:07:21.623Z,38.15
2018-02-12T04:09:49.984Z,37.80
2018-02-12T04:12:18.072Z,32.70
2018-02-12T04:14:46.584Z,36.55
2018-02-12T04:17:14.879Z,32.38
2018-02-12T04:19:43.279Z,33.45
2018-02-12T04:22:11.565Z,35.58
2018-02-12T04:24:39.759Z,37.70
2018-02-12T04:27:08.019Z,36.20
2018-02-12T04:29:36.436Z,45.08
2018-02-12T04:32:04.686Z,41.30
2018-02-12T04:34:33.056Z,35.08
2018-02-12T04:37:01.456Z,33.10
2018-02-12T04:39:29.736Z,39.72
2018-02-12T04:41:57.836Z,37.83
2018-02-12T04:44:25.960Z,42.28
2018-02-12T04:46:54.366Z,36.05
2018-02-12T04:49:22.723Z,44.00
2018-02-12T04:51:50.819Z,42.90
2018-02-12T04:54:19.041Z,41.67
2018-02-12T04:56:47.018Z,44.55
2018-02-12T04:59:15.307Z,40.97
2018-02-12T05:01:43.496Z,41.97
2018-02-12T05:04:11.627Z,41.70
2018-02-12T05:06:39.894Z,38.78
2018-02-12T05:09:08.181Z,37.88
2018-02-12T05:11:36.442Z,43.75
2018-02-12T05:14:04.895Z,41.05
2018-02-12T05:16:33.294Z,40.95
2018-02-12T05:19:01.568Z,39.83
2018-02-12T05:21:29.598Z,40.58
2018-02-12T05:23:58.740Z,39.88
2018-02-12T05:26:27.698Z,46.78
2018-02-12T05:28:55.878Z,35.03
2018-02-12T05:31:24.196Z,47.13
2018-02-12T05:33:52.460Z,44.08
2018-02-12T05:36:20.557Z,37.90
2018-02-12T05:38:48.877Z,35.78
2018-02-12T05:41:17.056Z,46.78
2018-02-12T05:43:45.366Z,41.42
2018-02-12T05:46:13.457Z,43.33
2018-02-12T05:48:41.834Z,48.55
2018-02-12T05:51:09.994Z,45.88
2018-02-12T05:53:38.840Z,42.00
2018-02-12T05:56:07.159Z,48.83
2018-02-12T05:58:35.534Z,43.42
2018-02-12T06:01:03.816Z,42.40
2018-02-12T06:03:32.147Z,44.95
2018-02-12T06:06:00.240Z,44.65
2018-02-12T06:08:29.179Z,43.70
2018-02-12T06:10:57.450Z,52.28
2018-02-12T06:13:25.720Z,50.47
2018-02-12T06:15:53.936Z,45.55
2018-02-12T06:18:22.648Z,46.63
2018-02-12T06:20:50.823Z,45.50
2018-02-12T06:23:18.922Z,40.40
2018-02-12T06:25:47.749Z,45.88
2018-02-12T06:28:15.766Z,51.63
2018-02-12T06:30:44.260Z,62.17
2018-02-12T06:33:12.581Z,48.10
2018-02-12T06:35:40.875Z,47.58
2018-02-12T06:38:09.319Z,56.25
2018-02-12T06:40:37.716Z,54.67
2018-02-12T06:43:05.918Z,53.55
2018-02-12T06:45:34.199Z,45.12
2018-02-12T06:48:02.296Z,47.10
2018-02-12T06:50:30.467Z,55.85
2018-02-12T06:52:58.558Z,44.58
2018-02-12T06:55:27.089Z,40.00
2018-02-12T06:57:55.466Z,49.17
2018-02-12T07:00:23.887Z,38.38
2018-02-12T07:02:52.076Z,43.28
2018-02-12T07:05:20.508Z,44.50
2018-02-12T07:07:48.988Z,40.28
2018-02-12T07:10:17.274Z,40.25
2018-02-12T07:12:45.679Z,37.08
2018-02-12T07:15:13.982Z,37.45
2018-02-12T07:17:42.513Z,36.53
2018-02-12T07:20:10.695Z,42.03
2018-02-12T07:22:38.974Z,45.63
2018-02-12T07:25:07.259Z,43.97
2018-02-12T07:27:35.516Z,48.67
2018-02-12T07:30:03.755Z,55.42
2018-02-12T07:32:31.776Z,43.87
2018-02-12T07:35:00.236Z,34.83
2018-02-12T07:37:28.334Z,38.45
2018-02-12T07:39:56.834Z,57.08
2018-02-12T07:42:25.118Z,55.50
2018-02-12T07:44:53.267Z,60.70
2018-02-12T07:47:21.380Z,47.17
2018-02-12T07:49:49.527Z,53.75
2018-02-12T07:52:17.798Z,42.75
2018-02-12T07:54:46.099Z,39.42
2018-02-12T07:57:14.406Z,45.30
2018-02-12T07:59:42.663Z,43.87
2018-02-12T08:02:10.989Z,39.38
2018-02-12T08:04:39.417Z,43.87
2018-02-12T08:07:07.718Z,39.60
2018-02-12T08:09:36.077Z,43.28
2018-02-12T08:12:04.193Z,37.45
2018-02-12T08:14:32.340Z,51.88
2018-02-12T08:17:00.531Z,45.10
2018-02-12T08:19:28.704Z,34.33
2018-02-12T08:21:56.802Z,45.92
2018-02-12T08:24:25.040Z,42.72
2018-02-12T08:26:53.562Z,50.03
2018-02-12T08:29:21.628Z,43.72
2018-02-12T08:31:50.454Z,41.70
2018-02-12T08:34:18.626Z,40.75
2018-02-12T08:36:47.042Z,42.08
2018-02-12T08:39:16.861Z,44.45
2018-02-12T08:41:45.258Z,38.08
2018-02-12T08:44:13.479Z,50.55
2018-02-12T08:46:41.858Z,40.75
2018-02-12T08:49:10.238Z,34.92
2018-02-12T08:51:38.457Z,46.97
2018-02-12T08:54:06.597Z,40.17
2018-02-12T08:56:34.991Z,43.70
2018-02-12T08:59:03.256Z,46.17
2018-02-12T09:01:31.544Z,44.65
2018-02-12T09:04:00.690Z,38.42
2018-02-12T09:06:29.254Z,44.35
2018-02-12T09:08:57.376Z,43.35
2018-02-12T09:11:25.654Z,36.53
2018-02-12T09:13:54.053Z,42.38
2018-02-12T09:16:22.217Z,38.13
2018-02-12T09:18:50.738Z,39.80
2018-02-12T09:21:19.047Z,37.88
2018-02-12T09:23:47.440Z,34.63
2018-02-12T09:26:15.680Z,33.83
2018-02-12T09:28:43.821Z,35.80
2018-02-12T09:31:12.119Z,33.45
2018-02-12T09:33:40.928Z,34.10
2018-02-12T09:36:09.056Z,33.30
2018-02-12T09:38:37.215Z,35.03
2018-02-12T09:41:05.714Z,31.73
2018-02-12T09:43:33.919Z,55.85
2018-02-12T09:46:02.303Z,32.70
2018-02-12T09:48:30.414Z,40.40
2018-02-12T09:50:58.702Z,33.60
2018-02-12T09:53:26.900Z,37.55
2018-02-12T09:55:55.319Z,28.35
2018-02-12T09:58:23.570Z,34.53
2018-02-12T10:00:51.897Z,36.55
2018-02-12T10:03:20.075Z,41.00
2018-02-12T10:05:48.278Z,35.35
2018-02-12T10:08:16.214Z,40.00
2018-02-12T10:10:44.523Z,38.97
2018-02-12T10:13:14.050Z,35.55
2018-02-12T10:15:42.399Z,42.60
2018-02-12T10:18:10.580Z,48.17
2018-02-12T10:20:38.788Z,38.45
2018-02-12T10:23:06.958Z,35.58
2018-02-12T10:25:35.377Z,33.05
2018-02-12T10:28:03.566Z,40.92
2018-02-12T10:30:31.757Z,31.58
2018-02-12T10:32:59.841Z,35.70
2018-02-12T10:35:28.069Z,32.13
2018-02-12T10:37:56.451Z,38.25
2018-02-12T10:40:24.743Z,32.78
2018-02-12T10:42:53.063Z,39.42
2018-02-12T10:45:21.546Z,36.95
2018-02-12T10:47:49.821Z,36.65
2018-02-12T10:50:18.124Z,34.20
2018-02-12T10:52:46.422Z,35.60
2018-02-12T10:55:14.711Z,36.63
2018-02-12T10:57:42.816Z,38.47
2018-02-12T11:00:12.236Z,38.30
2018-02-12T11:02:40.328Z,33.75
2018-02-12T11:05:08.526Z,33.70
2018-02-12T11:07:36.723Z,41.13
2018-02-12T11:10:04.813Z,32.72
2018-02-12T11:12:33.199Z,37.85
2018-02-12T11:15:01.501Z,38.08
2018-02-12T11:17:29.700Z,48.40
2018-02-12T11:19:57.798Z,44.50
2018-02-12T11:22:25.978Z,35.15
2018-02-12T11:24:54.076Z,40.90
2018-02-12T11:27:22.398Z,37.67
2018-02-12T11:29:50.462Z,32.83
2018-02-12T11:32:18.758Z,38.50
2018-02-12T11:34:47.068Z,38.60
2018-02-12T11:37:15.266Z,30.83
2018-02-12T11:39:43.459Z,34.05
2018-02-12T11:42:11.640Z,32.10
2018-02-12T11:44:39.742Z,35.22
2018-02-12T11:47:07.820Z,39.92
2018-02-12T11:49:36.126Z,37.22
2018-02-12T11:52:04.326Z,36.90
2018-02-12T11:54:32.405Z,37.42
2018-02-12T11:57:00.593Z,37.15
2018-02-12T11:59:28.896Z,33.53
2018-02-12T12:01:57.095Z,29.45
2018-02-12T12:04:25.287Z,35.10
2018-02-12T12:06:53.581Z,36.85
2018-02-12T12:09:21.877Z,38.05
2018-02-12T12:11:50.998Z,38.65
2018-02-12T12:14:19.196Z,41.53
2018-02-12T12:16:47.389Z,35.33
2018-02-12T12:19:15.592Z,33.80
2018-02-12T12:21:43.797Z,36.95
2018-02-12T12:24:12.897Z,41.22
2018-02-12T12:26:41.149Z,44.67
2018-02-12T12:29:09.389Z,43.35
2018-02-12T12:31:37.687Z,37.50
2018-02-12T12:34:05.759Z,40.12
2018-02-12T12:36:34.064Z,34.10
2018-02-12T12:39:02.184Z,37.60
2018-02-12T12:41:30.493Z,35.85
2018-02-12T12:43:58.750Z,42.20
2018-02-12T12:46:26.947Z,35.03
2018-02-12T12:48:54.961Z,43.45
2018-02-12T12:51:23.085Z,36.40
2018-02-12T12:53:51.229Z,36.53
2018-02-12T12:56:19.523Z,36.67
2018-02-12T12:58:47.704Z,36.53
2018-02-12T13:01:16.054Z,32.90
2018-02-12T13:03:44.197Z,37.35
2018-02-12T13:06:12.434Z,33.63
2018-02-12T13:08:40.685Z,32.63
2018-02-12T13:11:08.896Z,31.02
2018-02-12T13:13:37.081Z,27.65
2018-02-12T13:16:06.192Z,37.03
2018-02-12T13:18:34.392Z,30.40
2018-02-12T13:21:02.576Z,34.42
2018-02-12T13:23:30.788Z,32.72
2018-02-12T13:25:59.069Z,32.00
2018-02-12T13:28:27.280Z,28.90
2018-02-12T13:30:55.199Z,38.38
2018-02-12T13:33:23.459Z,26.98
2018-02-12T13:35:51.661Z,32.92
2018-02-12T13:38:19.839Z,35.05
2018-02-12T13:40:48.047Z,33.03
2018-02-12T13:43:16.237Z,37.20
2018-02-12T13:45:44.316Z,32.33
2018-02-12T13:48:12.514Z,35.50
2018-02-12T13:50:40.720Z,32.45
2018-02-12T13:53:08.906Z,32.55
2018-02-12T13:55:37.010Z,32.35
2018-02-12T13:58:05.185Z,25.40
2018-02-12T14:00:33.297Z,26.00
2018-02-12T14:03:01.475Z,33.83
2018-02-12T14:05:29.787Z,25.25
2018-02-12T14:07:58.072Z,26.83
2018-02-12T14:10:26.263Z,25.77
2018-02-12T14:12:54.420Z,27.62
2018-02-12T14:15:22.660Z,25.45
2018-02-12T14:17:50.756Z,29.67
2018-02-12T14:20:18.969Z,32.58
2018-02-12T14:22:47.135Z,28.40
2018-02-12T14:25:15.538Z,31.23
2018-02-12T14:27:43.735Z,33.10
2018-02-12T14:30:11.836Z,28.75
2018-02-12T14:32:39.955Z,29.35
2018-02-12T14:35:08.423Z,33.95
2018-02-12T14:37:36.603Z,35.10
2018-02-12T14:40:05.105Z,40.63
2018-02-12T14:42:33.315Z,36.05
2018-02-12T14:45:01.616Z,35.05
2018-02-12T14:47:29.936Z,34.55
2018-02-12T14:49:58.196Z,29.20
2018-02-12T14:52:27.018Z,34.60
2018-02-12T14:54:55.197Z,35.90
2018-02-12T14:57:23.161Z,33.15
2018-02-12T14:59:51.278Z,30.27
2018-02-12T15:02:19.480Z,28.62
2018-02-12T15:04:47.673Z,26.35
2018-02-12T15:07:15.973Z,28.62
2018-02-12T15:09:44.277Z,27.00
2018-02-12T15:12:12.758Z,30.33
2018-02-12T15:14:40.955Z,29.87
2018-02-12T15:17:09.155Z,36.22
2018-02-12T15:19:37.335Z,39.10
2018-02-12T15:22:05.653Z,38.63
2018-02-12T15:24:33.732Z,28.58
2018-02-12T15:27:01.934Z,32.97
2018-02-12T15:29:30.033Z,29.98
2018-02-12T15:31:58.296Z,25.17
2018-02-12T15:34:26.614Z,24.02
2018-02-12T15:36:54.713Z,30.02
2018-02-12T15:39:22.865Z,30.83
2018-02-12T15:41:51.026Z,25.98
2018-02-12T15:44:19.505Z,24.77
2018-02-12T15:46:47.565Z,31.65
2018-02-12T15:49:15.779Z,26.85
2018-02-12T15:51:43.779Z,26.67
2018-02-12T15:54:11.974Z,23.62
2018-02-12T15:56:40.065Z,23.70
2018-02-12T15:59:08.365Z,19.65
2018-02-12T16:01:36.682Z,18.67
2018-02-12T16:04:05.059Z,19.48
2018-02-12T16:06:33.152Z,16.90
2018-02-12T16:09:01.248Z,16.12
2018-02-12T16:11:29.328Z,16.30
2018-02-12T16:13:57.429Z,17.80
2018-02-12T16:16:25.508Z,25.05
2018-02-12T16:18:53.719Z,24.30
2018-02-12T16:21:21.909Z,16.85
2018-02-12T16:23:49.998Z,18.52
2018-02-12T16:26:18.103Z,14.05
2018-02-12T16:28:46.291Z,12.55
2018-02-12T16:31:14.496Z,23.27
2018-02-12T16:33:42.765Z,29.25
2018-02-12T16:36:10.956Z,38.33
2018-02-12T16:38:39.318Z,32.65
2018-02-12T16:41:07.764Z,27.55
2018-02-12T16:43:35.959Z,16.80
2018-02-12T16:46:04.158Z,13.35
2018-02-12T16:48:32.547Z,12.70
2018-02-12T16:51:00.734Z,12.77
2018-02-12T16:53:29.041Z,12.32
2018-02-12T16:55:57.130Z,7.60
2018-02-12T16:58:25.429Z,7.10
2018-02-12T17:00:54.037Z,6.80
2018-02-12T17:03:22.176Z,7.20
2018-02-12T17:05:50.422Z,7.43
2018-02-12T17:08:18.717Z,5.87
2018-02-12T17:10:46.924Z,4.18
2018-02-12T17:13:15.316Z,3.55
2018-02-12T17:15:43.414Z,4.47
2018-02-12T17:18:11.604Z,3.08
2018-02-12T17:20:40.927Z,3.72
2018-02-12T17:23:09.315Z,6.82
2018-02-12T17:25:37.413Z,7.20
2018-02-12T17:28:05.513Z,7.25
2018-02-12T17:30:33.687Z,7.00
2018-02-12T17:33:02.000Z,4.20
2018-02-12T17:35:30.302Z,3.45
2018-02-12T17:37:58.496Z,2.97
2018-02-12T17:40:26.777Z,3.35
2018-02-12T17:42:54.916Z,2.22
2018-02-12T17:45:22.877Z,3.53
2018-02-12T17:47:51.125Z,1.80
2018-02-12T17:50:19.259Z,1.60
2018-02-12T17:52:47.275Z,6.10
2018-02-12T17:55:15.706Z,3.65
2018-02-12T17:57:43.867Z,3.45
2018-02-12T18:00:12.139Z,2.12
2018-02-12T18:02:40.331Z,6.65
2018-02-12T18:05:08.516Z,47.13
2018-02-12T18:07:36.824Z,11.52
2018-02-12T18:10:05.489Z,6.87
2018-02-12T18:12:33.688Z,29.48
2018-02-12T18:15:01.811Z,21.60
2018-02-12T18:17:29.930Z,16.10
2018-02-12T18:19:59.211Z,12.52
2018-02-12T18:22:27.510Z,8.30
2018-02-12T18:24:55.710Z,1.87
2018-02-12T18:27:23.910Z,2.65
2018-02-12T18:29:51.990Z,2.35
2018-02-12T18:32:20.190Z,3.30
2018-02-12T18:34:48.390Z,2.33
2018-02-12T18:37:16.590Z,3.87
2018-02-12T18:39:44.670Z,2.92
2018-02-12T18:42:12.870Z,2.53
2018-02-12T18:44:41.071Z,3.33
2018-02-12T18:47:09.250Z,42.35
2018-02-12T18:49:37.491Z,138.55
2018-02-12T18:52:05.748Z,148.35
2018-02-12T18:54:33.888Z,184.37
2018-02-12T18:57:02.035Z,141.02
2018-02-12T18:59:30.223Z,130.55
2018-02-12T19:01:58.445Z,120.78
2018-02-12T19:04:26.521Z,66.87
2018-02-12T19:06:54.689Z,65.87
2018-02-12T19:09:22.919Z,55.42
2018-02-12T19:11:51.095Z,42.78
2018-02-12T19:14:19.196Z,40.58
2018-02-12T19:16:47.396Z,44.50
2018-02-12T19:19:15.483Z,40.47
2018-02-12T19:21:43.681Z,40.38
2018-02-12T19:24:12.016Z,40.53
2018-02-12T19:26:40.183Z,48.55
2018-02-12T19:29:08.316Z,36.03
2018-02-12T19:31:36.555Z,38.38
2018-02-12T19:34:04.794Z,32.15
2018-02-12T19:36:33.048Z,23.92
2018-02-12T19:39:01.232Z,41.25
2018-02-12T19:41:29.408Z,34.95
2018-02-12T19:43:57.410Z,35.33
2018-02-12T19:46:25.608Z,22.60
2018-02-12T19:48:53.908Z,33.33
2018-02-12T19:51:21.930Z,26.70
2018-02-12T19:53:49.987Z,20.10
2018-02-12T19:56:18.188Z,14.52
2018-02-12T19:58:46.291Z,15.15
2018-02-12T20:01:14.576Z,14.40
2018-02-12T20:03:42.578Z,11.32
2018-02-12T20:06:10.872Z,14.10
2018-02-12T20:08:40.073Z,20.33
2018-02-12T20:11:08.449Z,15.07
2018-02-12T20:13:36.681Z,24.63
2018-02-12T20:16:04.890Z,36.05
2018-02-12T20:18:32.998Z,32.05
2018-02-12T20:21:01.079Z,32.45
2018-02-12T20:23:29.239Z,17.17
2018-02-12T20:25:57.447Z,19.73
2018-02-12T20:28:25.585Z,22.08
2018-02-12T20:30:53.826Z,20.17
2018-02-12T20:33:21.985Z,19.10
2018-02-12T20:35:50.073Z,22.05
2018-02-12T20:38:18.244Z,22.05
2018-02-12T20:40:46.505Z,18.90
2018-02-12T20:43:14.612Z,18.37
2018-02-12T20:45:42.931Z,20.60
2018-02-12T20:48:11.230Z,18.77
2018-02-12T20:50:39.390Z,17.27
2018-02-12T20:53:07.410Z,18.62
2018-02-12T20:55:35.531Z,13.52
2018-02-12T20:58:03.801Z,21.35
2018-02-12T21:00:32.411Z,17.67
2018-02-12T21:03:00.737Z,15.30
2018-02-12T21:05:29.055Z,19.77
2018-02-12T21:07:58.267Z,15.65
2018-02-12T21:10:26.370Z,10.60
2018-02-12T21:12:55.409Z,12.27
2018-02-12T21:15:23.642Z,14.85
2018-02-12T21:17:51.775Z,17.20
2018-02-12T21:20:19.973Z,16.30
2018-02-12T21:22:48.052Z,17.48
2018-02-12T21:25:16.143Z,15.20
2018-02-12T21:27:44.343Z,16.08
2018-02-12T21:30:12.639Z,23.00
2018-02-12T21:32:40.732Z,14.55
2018-02-12T21:35:08.990Z,18.65
2018-02-12T21:37:37.121Z,15.02
2018-02-12T21:40:05.230Z,16.27
2018-02-12T21:42:33.301Z,25.85
2018-02-12T21:45:01.701Z,15.95
2018-02-12T21:47:29.996Z,36.40
2018-02-12T21:49:58.100Z,51.45
2018-02-12T21:52:26.320Z,34.22
2018-02-12T21:54:54.780Z,18.98
2018-02-12T21:57:22.859Z,14.82
2018-02-12T21:59:51.181Z,15.18
2018-02-12T22:02:19.280Z,13.30
2018-02-12T22:04:47.390Z,19.17
2018-02-12T22:07:15.753Z,23.67
2018-02-12T22:09:43.954Z,23.23
2018-02-12T22:12:12.074Z,21.08
2018-02-12T22:14:40.254Z,29.75
2018-02-12T22:17:09.561Z,26.48
2018-02-12T22:19:37.760Z,22.80
2018-02-12T22:22:06.983Z,30.60
2018-02-12T22:24:35.061Z,27.87
2018-02-12T22:27:03.362Z,26.02
2018-02-12T22:29:31.461Z,25.33
2018-02-12T22:31:59.861Z,25.62
2018-02-12T22:34:28.101Z,21.27
2018-02-12T22:36:56.103Z,15.07
2018-02-12T22:39:24.334Z,11.65
2018-02-12T22:41:52.319Z,11.65
2018-02-12T22:44:20.843Z,14.23
2018-02-12T22:46:48.942Z,18.25
2018-02-12T22:49:17.327Z,16.02
2018-02-12T22:51:45.826Z,16.20
2018-02-12T22:54:14.160Z,14.02
2018-02-12T22:56:42.305Z,18.30
2018-02-12T22:59:10.436Z,15.52
2018-02-12T23:01:38.605Z,18.17
2018-02-12T23:04:06.797Z,16.45
2018-02-12T23:06:34.995Z,20.17
2018-02-12T23:09:03.308Z,15.13
2018-02-12T23:11:31.475Z,18.52
2018-02-12T23:13:59.683Z,17.10
2018-02-12T23:16:27.899Z,20.73
2018-02-12T23:18:55.957Z,26.55
2018-02-12T23:21:24.248Z,35.75
2018-02-12T23:23:52.454Z,33.17
2018-02-12T23:26:20.838Z,17.35
2018-02-12T23:28:49.237Z,12.60
2018-02-12T23:31:17.576Z,12.52
2018-02-12T23:33:45.937Z,19.55
2018-02-12T23:36:14.238Z,21.73
2018-02-12T23:38:42.995Z,21.17
2018-02-12T23:41:11.339Z,20.80
2018-02-12T23:43:39.636Z,24.33
2018-02-12T23:46:07.835Z,19.08
2018-02-12T23:48:35.922Z,16.77
2018-02-12T23:51:04.018Z,24.05
2018-02-12T23:53:32.202Z,23.50
2018-02-12T23:56:00.395Z,20.27
2018-02-12T23:58:28.360Z,40.92
